Macomb, IL

11:04 AM CDT on July 28, 2017 (GMT -0500)
Macomb Municipal

Weather History for KMQB - November, 2011

Change the Weather History Date:

Thursday, November 10, 2011

  Actual Average (KBRL) Record (KBRL)
Temperature  
Mean Temperature 38 °F -  
Max Temperature 42 °F 46 °F 73 °F (1949)
Min Temperature 33 °F 29 °F 16 °F (1950)
Degree Days  
Heating Degree Days 28    
Moisture  
Dew Point 29 °F    
Average Humidity 71    
Maximum Humidity 82    
Minimum Humidity 60    
Precipitation  
Precipitation 0.00 in - - ()
Sea Level Pressure  
Sea Level Pressure 30.13 in    
Wind  
Wind Speed 13 mph (West)    
Max Wind Speed 24 mph    
Max Gust Speed 28 mph    
Visibility 10 miles    
Events      
Averages and records for this station are not official NWS values.
T = Trace of Precipitation, MM = Missing Value Source: NWS Daily Summary

Daily Weather History Graph

Daily Weather History Graph

Search for Another Location

Airport or City:

Trip Planner

Search our weather history database for the weather conditions in past years. The results will help you decide how hot, cold, wet, or windy it might be!

Date:

Astronomy

Nov. 10, 2011 Rise Set
Actual Time 6:42 AM CST 4:49 PM CST
Civil Twilight 6:13 AM CST 5:18 PM CST
Nautical Twilight 5:41 AM CST 5:51 PM CST
Astronomical Twilight 5:09 AM CST 6:23 PM CST
Moon 4:37 PM CST (11/10) 6:35 AM CST (11/10)
Length of Visible Light 11h 04m
Length of Day
10h 06m
Full, 100% of the Moon is Illuminated
Nov 10
Full
Nov 10
Full
Nov 18
Last Quarter
Nov 25
New
Dec 2
First Quarter

Hourly Weather History & Observations

Time (CST) Temp. Windchill Dew Point Humidity Pressure Visibility Wind Dir Wind Speed Gust Speed Precip Events Conditions
12:15 AM 36.1 °F 29.3 °F 31.1 °F 82% 30.12 in 10.0 mi West 9.2 mph - N/A   Clear
12:35 AM 36.9 °F 29.6 °F 30.7 °F 79% 30.12 in 10.0 mi West 10.4 mph - N/A   Clear
12:55 AM 37.0 °F 28.5 °F 30.2 °F 76% 30.12 in 10.0 mi West 13.8 mph - N/A   Clear
1:15 AM 36.7 °F 28.9 °F 30.0 °F 77% 30.12 in 10.0 mi West 11.5 mph - N/A   Clear
1:35 AM 36.5 °F 28.7 °F 29.7 °F 76% 30.12 in 10.0 mi West 11.5 mph - N/A   Clear
1:55 AM 37.4 °F 29.8 °F 30.2 °F 75% 30.12 in 10.0 mi West 11.5 mph - N/A   Clear
2:15 AM 35.8 °F 28.8 °F 29.3 °F 77% 30.12 in 10.0 mi West 9.2 mph - N/A   Clear
2:35 AM 35.8 °F 27.8 °F 29.3 °F 77% 30.12 in 10.0 mi West 11.5 mph - N/A   Clear
2:55 AM 35.6 °F 28.6 °F 30.2 °F 81% 30.11 in 10.0 mi West 9.2 mph - N/A   Clear
3:15 AM 34.7 °F 26.9 °F 29.3 °F 81% 30.11 in 10.0 mi WSW 10.4 mph - N/A   Clear
3:35 AM 34.7 °F 26.9 °F 28.9 °F 79% 30.11 in 10.0 mi West 10.4 mph - N/A   Clear
3:55 AM 34.9 °F 27.1 °F 28.4 °F 77% 30.11 in 10.0 mi West 10.4 mph - N/A   Clear
4:15 AM 35.1 °F 26.4 °F 28.0 °F 76% 30.11 in 10.0 mi West 12.7 mph - N/A   Clear
4:35 AM 34.7 °F 25.9 °F 28.0 °F 77% 30.11 in 10.0 mi West 12.7 mph - N/A   Clear
4:55 AM 34.7 °F 25.9 °F 28.0 °F 77% 30.10 in 10.0 mi West 12.7 mph - N/A   Clear
5:15 AM 34.3 °F 25.9 °F 28.0 °F 78% 30.10 in 10.0 mi West 11.5 mph - N/A   Clear
5:55 AM 34.0 °F 25.5 °F 28.0 °F 79% 30.10 in 10.0 mi West 11.5 mph - N/A   Scattered Clouds
6:15 AM 34.3 °F 25.5 °F 28.4 °F 79% 30.10 in 10.0 mi West 12.7 mph - N/A   Overcast
6:35 AM 33.8 °F 24.8 °F 28.0 °F 79% 30.11 in 10.0 mi West 12.7 mph - N/A   Mostly Cloudy
6:55 AM 33.8 °F 25.3 °F 28.0 °F 79% 30.11 in 10.0 mi West 11.5 mph - N/A   Clear
7:15 AM 34.0 °F 25.0 °F 27.9 °F 78% 30.12 in 10.0 mi West 12.7 mph - N/A   Clear
7:35 AM 34.7 °F 25.5 °F 28.2 °F 77% 30.12 in 10.0 mi West 13.8 mph 18.4 mph N/A   Clear
7:55 AM 35.1 °F 25.2 °F 28.2 °F 76% 30.13 in 10.0 mi West 16.1 mph - N/A   Clear
8:15 AM 35.6 °F 25.9 °F 28.4 °F 75% 30.13 in 10.0 mi West 16.1 mph 21.9 mph N/A   Clear
8:35 AM 36.5 °F 26.7 °F 28.6 °F 73% 30.13 in 10.0 mi West 17.3 mph 21.9 mph N/A   Clear
8:55 AM 37.2 °F 27.0 °F 28.6 °F 71% 30.13 in 10.0 mi West 19.6 mph 26.5 mph N/A   Clear
9:15 AM 37.6 °F 27.1 °F 28.4 °F 69% 30.13 in 10.0 mi WNW 20.7 mph 27.6 mph N/A   Clear
9:35 AM 38.3 °F 27.3 °F 28.9 °F 69% 30.14 in 10.0 mi WNW 24.2 mph - N/A   Clear
9:55 AM 38.7 °F 28.0 °F 29.5 °F 70% 30.14 in 10.0 mi WNW 23.0 mph 27.6 mph N/A   Clear
10:15 AM 39.4 °F 30.1 °F 29.8 °F 69% 30.15 in 10.0 mi WNW 18.4 mph - N/A   Clear
10:35 AM 40.1 °F 30.7 °F 30.0 °F 67% 30.15 in 10.0 mi WNW 19.6 mph 25.3 mph N/A   Clear
10:55 AM 41.2 °F 32.7 °F 31.3 °F 68% 30.15 in 10.0 mi WNW 17.3 mph 25.3 mph N/A   Scattered Clouds
11:15 AM 42.1 °F 33.3 °F 31.3 °F 66% 30.15 in 10.0 mi West 19.6 mph 25.3 mph N/A   Overcast
11:35 AM 41.0 °F 31.6 °F 30.2 °F 65% 30.14 in 10.0 mi WNW 20.7 mph - N/A   Overcast
11:55 AM 41.5 °F 32.6 °F 30.6 °F 65% 30.14 in 10.0 mi WNW 19.6 mph 25.3 mph N/A   Overcast
12:15 PM 41.5 °F 32.1 °F 30.2 °F 64% 30.13 in 10.0 mi WNW 21.9 mph 26.5 mph N/A   Mostly Cloudy
12:35 PM 41.5 °F 32.9 °F 30.0 °F 64% 30.13 in 10.0 mi WNW 18.4 mph 25.3 mph N/A   Mostly Cloudy
12:55 PM 42.1 °F 33.9 °F 29.8 °F 62% 30.13 in 10.0 mi WNW 17.3 mph - N/A   Overcast
1:15 PM 41.5 °F 33.8 °F 29.1 °F 61% 30.13 in 10.0 mi NW 15.0 mph - N/A   Overcast
1:35 PM 41.2 °F 32.7 °F 28.9 °F 62% 30.13 in 10.0 mi NW 17.3 mph - N/A   Mostly Cloudy
1:55 PM 41.2 °F 31.9 °F 28.9 °F 62% 30.13 in 10.0 mi WNW 20.7 mph 26.5 mph N/A   Mostly Cloudy
2:15 PM 41.4 °F 32.7 °F 28.8 °F 61% 30.13 in 10.0 mi WNW 18.4 mph - N/A   Mostly Cloudy
2:35 PM 42.3 °F 33.6 °F 30.0 °F 62% 30.13 in 10.0 mi West 19.6 mph 27.6 mph N/A   Mostly Cloudy
2:55 PM 41.5 °F 32.6 °F 29.3 °F 62% 30.13 in 10.0 mi West 19.6 mph 24.2 mph N/A   Mostly Cloudy
3:15 PM 40.6 °F 32.3 °F 29.3 °F 64% 30.14 in 10.0 mi WNW 16.1 mph - N/A   Mostly Cloudy
3:35 PM 41.2 °F 32.1 °F 28.0 °F 60% 30.14 in 10.0 mi WNW 19.6 mph 23.0 mph N/A   Overcast
3:55 PM 41.0 °F 33.9 °F 29.5 °F 64% 30.14 in 10.0 mi WNW 12.7 mph - N/A   Overcast
4:15 PM 40.8 °F 32.6 °F 28.0 °F 60% 30.14 in 10.0 mi WNW 16.1 mph - N/A   Overcast
4:35 PM 40.5 °F 32.8 °F 29.8 °F 66% 30.15 in 10.0 mi WNW 13.8 mph - N/A   Overcast
4:55 PM 40.3 °F 32.6 °F 29.5 °F 65% 30.15 in 10.0 mi WNW 13.8 mph - N/A   Overcast
5:15 PM 40.1 °F 32.7 °F 29.1 °F 65% 30.16 in 10.0 mi NW 12.7 mph - N/A   Overcast
5:35 PM 39.6 °F 32.5 °F 29.5 °F 67% 30.15 in 10.0 mi WNW 11.5 mph - N/A   Overcast
5:55 PM 39.2 °F 33.0 °F 29.7 °F 69% 30.16 in 10.0 mi WNW 9.2 mph - N/A   Overcast
6:15 PM 38.8 °F 32.6 °F 29.7 °F 70% 30.15 in 10.0 mi WNW 9.2 mph - N/A   Overcast
6:35 PM 36.9 °F 30.1 °F 30.2 °F 77% 30.15 in 10.0 mi West 9.2 mph - N/A   Mostly Cloudy
6:55 PM 36.9 °F 30.7 °F 29.7 °F 75% 30.14 in 10.0 mi West 8.1 mph - N/A   Overcast
7:15 PM 37.4 °F 32.1 °F 29.8 °F 74% 30.14 in 10.0 mi West 6.9 mph - N/A   Overcast
7:35 PM 37.9 °F 32.1 °F 29.8 °F 73% 30.14 in 10.0 mi West 8.1 mph - N/A   Overcast
7:55 PM 37.6 °F 31.6 °F 29.3 °F 72% 30.14 in 10.0 mi West 8.1 mph - N/A   Overcast
8:15 PM 37.0 °F 30.4 °F 28.9 °F 73% 30.14 in 10.0 mi West 9.2 mph - N/A   Overcast
8:35 PM 36.3 °F 30.1 °F 29.1 °F 75% 30.14 in 10.0 mi West 8.1 mph - N/A   Mostly Cloudy
8:55 PM 35.6 °F 28.6 °F 29.1 °F 77% 30.14 in 10.0 mi West 9.2 mph - N/A   Scattered Clouds
9:15 PM 34.9 °F 27.7 °F 29.1 °F 79% 30.14 in 10.0 mi WSW 9.2 mph - N/A   Clear
9:35 PM 34.2 °F 27.5 °F 29.3 °F 82% 30.14 in 10.0 mi WSW 8.1 mph - N/A   Clear
9:55 PM 33.3 °F 26.4 °F 29.1 °F 85% 30.13 in 10.0 mi WSW 8.1 mph - N/A   Clear
10:15 PM 32.5 °F 27.1 °F 28.9 °F 87% 30.14 in 10.0 mi WSW 5.8 mph - N/A   Clear
10:35 PM 32.5 °F 26.2 °F 28.6 °F 85% 30.13 in 10.0 mi WSW 6.9 mph - N/A   Clear
10:55 PM 32.5 °F 26.2 °F 28.2 °F 84% 30.13 in 10.0 mi WSW 6.9 mph - N/A   Clear
11:15 PM 32.4 °F 25.3 °F 27.9 °F 83% 30.13 in 10.0 mi WSW 8.1 mph - N/A   Clear
11:35 PM 32.4 °F 26.0 °F 27.5 °F 82% 30.13 in 10.0 mi WSW 6.9 mph - N/A   Clear
11:55 PM 32.0 °F 26.4 °F 27.5 °F 83% 30.12 in 10.0 mi WSW 5.8 mph - N/A   Clear